WATER LEVELS

Guaranteed water level and forecast    Ústí nad Labem-Střekov

Guaranteed water level
135 cm
on 15.07.2019 more information
Forecast
130 cm
on 16.07.2019 07:00
Tendency
steady state
on 16.07.2019 metodika tendence
Forecast
(Source data ČHMÚ a Povodí Labe)

Ústí nad Labem

Date and time (UTC) H (cm) Q (m3/s)
16. 7. 2019 00:40 137 93
16. 7. 2019 00:00 137 93
15. 7. 2019 23:00 137 93
15. 7. 2019 22:00 137 93
15. 7. 2019 21:00 137 93
15. 7. 2019 20:00 137 93
15. 7. 2019 19:00 137 93
15. 7. 2019 18:00 137 93
15. 7. 2019 17:00 138 95
15. 7. 2019 16:00 139 96
15. 7. 2019 15:00 139 96
15. 7. 2019 14:00 139 96
15. 7. 2019 13:00 140 98
15. 7. 2019 12:00 143 102

H - vodni stav, Q - discharge
more information

Mělník

Date and time (UTC) H (cm) Q (m3/s)
16. 7. 2019 00:40 254 -
16. 7. 2019 00:00 253 -
15. 7. 2019 23:00 253 -
15. 7. 2019 22:00 253 -
15. 7. 2019 21:00 255 -
15. 7. 2019 20:00 254 -
15. 7. 2019 19:00 254 -
15. 7. 2019 18:00 254 -
15. 7. 2019 17:00 250 -
15. 7. 2019 16:00 256 -
15. 7. 2019 15:00 256 -
15. 7. 2019 14:00 256 -
15. 7. 2019 13:00 256 -
15. 7. 2019 12:00 257 -

H - vodni stav, Q - discharge
more information

Kostelec nad Labem

Date and time (UTC) H (cm) Q (m3/s)
16. 7. 2019 00:40 393 -
16. 7. 2019 00:00 393 -
15. 7. 2019 23:00 394 14
15. 7. 2019 22:00 394 11
15. 7. 2019 21:00 393 9
15. 7. 2019 20:00 393 11
15. 7. 2019 19:00 394 15
15. 7. 2019 18:00 394 15
15. 7. 2019 17:00 393 15
15. 7. 2019 16:00 395 16
15. 7. 2019 15:00 392 19
15. 7. 2019 14:00 398 11
15. 7. 2019 13:00 395 15
15. 7. 2019 12:00 393 12

H - vodni stav, Q - discharge
more information

Přelouč

Date and time (UTC) H (cm) Q (m3/s)
15. 7. 2019 11:40 28 12
15. 7. 2019 11:00 33 14
15. 7. 2019 10:00 38 16
15. 7. 2019 09:00 27 11
15. 7. 2019 08:00 27 11
15. 7. 2019 07:00 28 12
15. 7. 2019 06:00 42 18
15. 7. 2019 05:00 44 19
15. 7. 2019 04:00 40 17
15. 7. 2019 03:00 32 13
15. 7. 2019 02:00 36 15
15. 7. 2019 01:00 43 18

H - vodni stav, Q - discharge
more information

Praha-Chuchle

Date and time (UTC) H (cm) Q (m3/s)
16. 7. 2019 00:40 48 61
16. 7. 2019 00:00 48 61
15. 7. 2019 23:00 48 61
15. 7. 2019 22:00 46 54
15. 7. 2019 21:00 46 54
15. 7. 2019 20:00 46 54
15. 7. 2019 19:00 46 54
15. 7. 2019 18:00 46 54
15. 7. 2019 17:00 45 51
15. 7. 2019 16:00 45 51
15. 7. 2019 15:00 46 54
15. 7. 2019 14:00 45 51
15. 7. 2019 13:00 44 47
15. 7. 2019 12:00 47 58

H - vodni stav, Q - discharge
more information

České Budějovice

Date and time (UTC) H (cm) Q (m3/s)
16. 7. 2019 00:40 102 19
16. 7. 2019 00:00 102 20
15. 7. 2019 23:00 103 20
15. 7. 2019 22:00 102 21
15. 7. 2019 21:00 103 21
15. 7. 2019 20:00 101 21
15. 7. 2019 19:00 103 19
15. 7. 2019 18:00 103 22
15. 7. 2019 17:00 101 22
15. 7. 2019 16:00 102 21
15. 7. 2019 15:00 103 20
15. 7. 2019 14:00 103 20
15. 7. 2019 13:00 104 20
15. 7. 2019 12:00 103 20

H - vodni stav, Q - discharge
more information
Source data
Labe Basin Vltava Basin ČHMÚ